Delta Virtual Airport Information Service

Dublin Airport

ICAO: EIDW Country: Ireland
Latitude: 53.4214 Longitude: -6.27
Latest Arrival : RYR338 (2) (EGGW-EIDW) Latest Departure : EIN137 (2) (EIDW-KBOS)


WX CaptureLIVE
Data provided by noaa.gov | Fetched at 23:52:59

METAR : EIDW 120300Z 08002KT 9999 FEW035 01/01 Q1004 NOSIG

TAF : EIDW 112300Z 1200/1224 VRB03KT 9999 SCT035 BECMG 1207/1209 11008KT TEMPO 1208/1218 -SHRA BKN012 FEW020CB PROB30 TEMPO 1208/1218 4000 SHRA BKN008 SCT020CB BECMG 1210/1212 07005KT BECMG 1214/1216 VRB03KT


Runway Data for EIDW
Data provided by openaviationdata.com

Runway ID Mag Var Hdg Length Elevation Surface ILS Freq ILS Id ILS Slope
10 -5 100° 8842 ft 242 ft Asphalt 108.9 IDE 3
16 -5 162° 6824 ft 242 ft Asphalt 111.5 IAC 3
28 -5 280° 8842 ft 242 ft Asphalt 111.35 IDW 3
34 -5 342° 6824 ft 242 ft Asphalt -- -- --

Dublin Airport, Ireland
Use only for reference purposes



Not for navigational purposes.